createdAt,value
2023-07-14T00:00:35.319Z,89.97
2023-07-14T00:01:35.430Z,90.14
2023-07-14T00:02:35.281Z,90.13
2023-07-14T00:03:35.374Z,90.17
2023-07-14T00:04:34.981Z,90.19
2023-07-14T00:05:35.249Z,90.55
2023-07-14T00:06:35.269Z,90.37
2023-07-14T00:07:35.231Z,90.05
2023-07-14T00:08:35.220Z,90.08
2023-07-14T00:09:35.196Z,90.14
2023-07-14T00:10:37.729Z,90.11
2023-07-14T00:11:35.151Z,90.06
2023-07-14T00:12:35.202Z,90.04
2023-07-14T00:13:35.157Z,90.00
2023-07-14T00:14:35.130Z,90.19
2023-07-14T00:15:35.138Z,90.25
2023-07-14T00:16:35.145Z,90.27
2023-07-14T00:17:35.108Z,90.36
2023-07-14T00:18:35.078Z,90.48
2023-07-14T00:19:35.059Z,90.20
2023-07-14T00:20:35.060Z,90.18
2023-07-14T00:21:35.019Z,90.21
2023-07-14T00:22:35.068Z,90.20
2023-07-14T00:23:35.035Z,90.32
2023-07-14T00:24:35.019Z,90.45
2023-07-14T00:25:34.999Z,90.58
2023-07-14T00:26:34.963Z,90.83
2023-07-14T00:27:34.960Z,91.06
2023-07-14T00:28:34.947Z,91.30
2023-07-14T00:29:34.901Z,91.30
2023-07-14T00:30:34.891Z,91.64
2023-07-14T00:31:34.973Z,91.62
2023-07-14T00:32:34.914Z,91.54
2023-07-14T00:33:34.850Z,91.54
2023-07-14T00:34:34.832Z,91.51
2023-07-14T00:35:32.899Z,91.51
2023-07-14T00:36:34.819Z,91.54
2023-07-14T00:37:34.791Z,91.52
2023-07-14T00:38:34.812Z,91.44
2023-07-14T00:39:35.006Z,91.40
2023-07-14T00:40:34.810Z,91.49
2023-07-14T00:41:34.780Z,91.53
2023-07-14T00:42:34.753Z,91.49
2023-07-14T00:43:34.726Z,91.49
2023-07-14T00:44:34.699Z,91.47
2023-07-14T00:45:34.726Z,91.44
2023-07-14T00:46:34.826Z,91.49
2023-07-14T00:47:34.721Z,91.51
2023-07-14T00:48:34.648Z,91.35
2023-07-14T00:49:34.627Z,91.19
2023-07-14T00:50:34.642Z,91.18
2023-07-14T00:51:34.603Z,91.43
2023-07-14T00:52:34.612Z,91.29
2023-07-14T00:53:34.575Z,91.32
2023-07-14T00:54:34.567Z,91.42
2023-07-14T00:55:34.587Z,91.40
2023-07-14T00:56:34.559Z,91.49
2023-07-14T00:57:34.545Z,91.79
2023-07-14T00:58:33.661Z,91.98
2023-07-14T00:59:34.555Z,91.96
2023-07-14T01:00:34.505Z,91.73
2023-07-14T01:01:34.531Z,91.70
2023-07-14T01:02:34.496Z,91.80
2023-07-14T01:03:34.547Z,91.79
2023-07-14T01:04:34.447Z,91.51
2023-07-14T01:05:34.413Z,91.58
2023-07-14T01:06:34.401Z,91.73
2023-07-14T01:07:34.371Z,91.80
2023-07-14T01:08:34.380Z,91.71
2023-07-14T01:09:34.378Z,91.69
2023-07-14T01:10:34.350Z,91.77
2023-07-14T01:11:34.330Z,91.63
2023-07-14T01:12:34.325Z,91.48
2023-07-14T01:13:34.307Z,91.42
2023-07-14T01:14:34.310Z,91.37
2023-07-14T01:15:34.282Z,91.34
2023-07-14T01:16:34.277Z,91.40
2023-07-14T01:17:34.279Z,91.45
2023-07-14T01:18:34.233Z,91.46
2023-07-14T01:19:34.217Z,91.51
2023-07-14T01:20:34.223Z,91.55
2023-07-14T01:21:34.194Z,91.53
2023-07-14T01:22:33.768Z,91.62
2023-07-14T01:23:34.172Z,91.61
2023-07-14T01:24:34.173Z,91.74
2023-07-14T01:25:34.173Z,91.60
2023-07-14T01:26:34.105Z,91.54
2023-07-14T01:27:34.108Z,91.59
2023-07-14T01:28:34.109Z,91.64
2023-07-14T01:29:34.090Z,91.87
2023-07-14T01:30:34.099Z,91.85
2023-07-14T01:31:34.086Z,91.75
2023-07-14T01:32:34.089Z,91.80
2023-07-14T01:33:34.036Z,91.76
2023-07-14T01:34:33.231Z,91.91
2023-07-14T01:35:34.002Z,92.21
2023-07-14T01:36:33.974Z,92.60
2023-07-14T01:37:33.983Z,92.61
2023-07-14T01:38:33.948Z,92.48
2023-07-14T01:39:33.956Z,92.36
2023-07-14T01:40:33.954Z,92.36
2023-07-14T01:41:33.922Z,92.42
2023-07-14T01:42:33.914Z,92.52
2023-07-14T01:43:33.888Z,92.58
2023-07-14T01:44:33.889Z,92.51
2023-07-14T01:45:33.875Z,92.60
2023-07-14T01:46:33.887Z,92.73
2023-07-14T01:47:33.899Z,92.96
2023-07-14T01:48:33.821Z,92.93
2023-07-14T01:49:33.847Z,92.90
2023-07-14T01:50:33.791Z,92.91
2023-07-14T01:51:33.808Z,93.07
2023-07-14T01:52:33.812Z,93.16
2023-07-14T01:53:33.326Z,93.26
2023-07-14T01:54:33.743Z,93.41
2023-07-14T01:55:33.726Z,93.59
2023-07-14T01:56:33.718Z,93.88
2023-07-14T01:57:33.697Z,94.11
2023-07-14T01:58:33.685Z,94.25
2023-07-14T01:59:33.681Z,94.59
2023-07-14T02:00:33.665Z,94.82
2023-07-14T02:01:33.688Z,94.94
2023-07-14T02:02:33.684Z,95.05
2023-07-14T02:03:33.631Z,95.06
2023-07-14T02:04:33.603Z,95.06
2023-07-14T02:05:33.598Z,95.11
2023-07-14T02:06:33.555Z,95.20
2023-07-14T02:07:33.546Z,95.29
2023-07-14T02:08:33.526Z,95.37
2023-07-14T02:09:33.563Z,95.57
2023-07-14T02:10:33.528Z,95.83
2023-07-14T02:11:33.518Z,95.93
2023-07-14T02:12:33.476Z,96.10
2023-07-14T02:13:33.469Z,96.21
2023-07-14T02:14:33.497Z,96.37
2023-07-14T02:15:33.483Z,96.36
2023-07-14T02:16:33.506Z,96.29
2023-07-14T02:17:33.474Z,96.26
2023-07-14T02:18:33.388Z,96.12
2023-07-14T02:19:33.390Z,96.00
2023-07-14T02:20:33.379Z,95.87
2023-07-14T02:21:33.353Z,95.78
2023-07-14T02:22:33.384Z,95.74
2023-07-14T02:23:33.335Z,95.69
2023-07-14T02:24:33.321Z,95.73
2023-07-14T02:25:33.299Z,95.65
2023-07-14T02:26:33.331Z,95.53
2023-07-14T02:27:33.297Z,95.54
2023-07-14T02:28:35.686Z,95.60
2023-07-14T02:29:33.254Z,95.68
2023-07-14T02:30:33.232Z,95.86
2023-07-14T02:31:33.271Z,95.95
2023-07-14T02:32:33.234Z,96.04
2023-07-14T02:33:33.200Z,96.28
2023-07-14T02:34:33.177Z,96.39
2023-07-14T02:35:33.155Z,96.41
2023-07-14T02:36:33.158Z,96.39
2023-07-14T02:37:33.124Z,96.34
2023-07-14T02:38:33.117Z,96.33
2023-07-14T02:39:33.105Z,96.39
2023-07-14T02:40:33.094Z,96.40
2023-07-14T02:41:32.586Z,96.39
2023-07-14T02:42:33.090Z,96.30
2023-07-14T02:43:33.058Z,96.24
2023-07-14T02:44:33.059Z,96.27
2023-07-14T02:45:33.033Z,96.28
2023-07-14T02:46:33.055Z,96.44
2023-07-14T02:47:33.011Z,96.45
2023-07-14T02:48:32.984Z,96.46
2023-07-14T02:49:32.965Z,96.46
2023-07-14T02:50:32.945Z,96.46
2023-07-14T02:51:32.952Z,96.47
2023-07-14T02:52:31.299Z,96.22
2023-07-14T02:53:32.931Z,96.02
2023-07-14T02:54:32.895Z,95.88
2023-07-14T02:55:32.873Z,95.75
2023-07-14T02:56:32.901Z,95.72
2023-07-14T02:57:32.887Z,95.69
2023-07-14T02:58:32.872Z,95.61
2023-07-14T02:59:32.831Z,95.62
2023-07-14T03:00:32.816Z,95.58
2023-07-14T03:01:32.822Z,95.60
2023-07-14T03:02:32.931Z,95.70
2023-07-14T03:03:32.818Z,95.76
2023-07-14T03:04:32.747Z,95.79
2023-07-14T03:05:32.785Z,95.82
2023-07-14T03:06:32.726Z,95.83
2023-07-14T03:07:32.739Z,95.84
2023-07-14T03:08:32.691Z,95.91
2023-07-14T03:09:32.677Z,96.00
2023-07-14T03:10:32.673Z,96.13
2023-07-14T03:11:32.679Z,96.21
2023-07-14T03:12:32.652Z,96.26
2023-07-14T03:13:32.646Z,96.28
2023-07-14T03:14:32.608Z,96.36
2023-07-14T03:15:32.622Z,96.31
2023-07-14T03:16:32.632Z,96.21
2023-07-14T03:17:32.125Z,96.10
2023-07-14T03:18:32.566Z,96.06
2023-07-14T03:19:32.543Z,96.08
2023-07-14T03:20:32.542Z,96.07
2023-07-14T03:21:32.554Z,96.00
2023-07-14T03:22:32.532Z,95.94
2023-07-14T03:23:32.511Z,95.82
2023-07-14T03:24:32.475Z,95.77
2023-07-14T03:25:32.471Z,95.73
2023-07-14T03:26:32.447Z,95.80
2023-07-14T03:27:32.440Z,95.95
2023-07-14T03:28:32.429Z,96.10
2023-07-14T03:29:32.418Z,96.12
2023-07-14T03:30:32.400Z,96.27
2023-07-14T03:31:32.450Z,96.22
2023-07-14T03:32:30.698Z,96.17
2023-07-14T03:33:32.343Z,96.11
2023-07-14T03:34:32.330Z,96.10
2023-07-14T03:35:32.329Z,96.04
2023-07-14T03:36:32.291Z,96.02
2023-07-14T03:37:32.304Z,96.15
2023-07-14T03:38:32.283Z,96.15
2023-07-14T03:39:32.273Z,96.04
2023-07-14T03:40:32.252Z,96.05
2023-07-14T03:41:32.239Z,96.11
2023-07-14T03:42:32.228Z,96.07
2023-07-14T03:43:32.212Z,96.08
2023-07-14T03:44:32.306Z,96.07
2023-07-14T03:45:32.189Z,96.02
2023-07-14T03:46:32.213Z,95.98
2023-07-14T03:47:32.189Z,96.06
2023-07-14T03:48:32.143Z,96.12
2023-07-14T03:49:32.139Z,96.07
2023-07-14T03:50:32.108Z,96.12
2023-07-14T03:51:32.087Z,95.93
2023-07-14T03:52:32.078Z,95.80
2023-07-14T03:53:32.090Z,95.87
2023-07-14T03:54:32.062Z,96.01
2023-07-14T03:55:32.038Z,96.20
2023-07-14T03:56:32.053Z,96.15
2023-07-14T03:57:32.014Z,95.96
2023-07-14T03:58:31.993Z,95.89
2023-07-14T03:59:32.017Z,95.85
2023-07-14T04:00:32.034Z,95.81
2023-07-14T04:01:32.050Z,95.75
2023-07-14T04:02:31.985Z,95.69
2023-07-14T04:03:32.046Z,95.66
2023-07-14T04:04:31.936Z,95.72
2023-07-14T04:05:31.915Z,95.73
2023-07-14T04:06:31.934Z,95.63
2023-07-14T04:07:31.879Z,95.64
2023-07-14T04:08:31.857Z,95.69
2023-07-14T04:09:31.877Z,95.74
2023-07-14T04:10:31.854Z,95.76
2023-07-14T04:11:31.831Z,95.68
2023-07-14T04:12:31.808Z,95.64
2023-07-14T04:13:31.849Z,95.64
2023-07-14T04:14:31.785Z,95.60
2023-07-14T04:15:31.765Z,95.53
2023-07-14T04:16:31.783Z,95.51
2023-07-14T04:17:31.796Z,95.54
2023-07-14T04:18:31.757Z,95.63
2023-07-14T04:19:31.741Z,95.58
2023-07-14T04:20:31.708Z,95.34
2023-07-14T04:21:31.688Z,95.16
2023-07-14T04:22:31.730Z,95.19
2023-07-14T04:23:31.804Z,95.30
2023-07-14T04:24:31.631Z,95.24
2023-07-14T04:25:31.660Z,95.17
2023-07-14T04:26:31.623Z,95.02
2023-07-14T04:27:31.626Z,95.11
2023-07-14T04:28:31.666Z,95.10
2023-07-14T04:29:31.571Z,94.97
2023-07-14T04:30:31.566Z,95.00
2023-07-14T04:31:31.618Z,95.11
2023-07-14T04:32:31.571Z,95.10
2023-07-14T04:33:31.545Z,95.17
2023-07-14T04:34:31.492Z,95.29
2023-07-14T04:35:31.504Z,95.24
2023-07-14T04:36:31.470Z,95.30
2023-07-14T04:37:31.463Z,95.21
2023-07-14T04:38:31.451Z,95.01
2023-07-14T04:39:31.536Z,94.84
2023-07-14T04:40:36.183Z,94.69
2023-07-14T04:41:32.470Z,94.53
2023-07-14T04:42:31.399Z,94.47
2023-07-14T04:43:31.394Z,94.34
2023-07-14T04:44:32.926Z,94.24
2023-07-14T04:45:31.464Z,94.10
2023-07-14T04:46:31.516Z,94.03
2023-07-14T04:47:31.397Z,94.06
2023-07-14T04:48:31.316Z,94.02
2023-07-14T04:49:31.298Z,93.82
2023-07-14T04:50:31.292Z,93.57
2023-07-14T04:51:31.314Z,93.52
2023-07-14T04:52:31.273Z,93.56
2023-07-14T04:53:31.242Z,93.72
2023-07-14T04:54:31.228Z,93.75
2023-07-14T04:55:31.303Z,93.57
2023-07-14T04:56:31.224Z,93.38
2023-07-14T04:57:31.182Z,93.29
2023-07-14T04:58:31.168Z,93.09
2023-07-14T04:59:31.159Z,92.79
2023-07-14T05:00:31.142Z,92.83
2023-07-14T05:01:31.170Z,92.79
2023-07-14T05:02:31.217Z,92.75
2023-07-14T05:03:31.247Z,92.68
2023-07-14T05:04:30.611Z,92.79
2023-07-14T05:05:31.089Z,92.74
2023-07-14T05:06:31.071Z,92.80
2023-07-14T05:07:31.041Z,92.84
2023-07-14T05:08:31.042Z,92.87
2023-07-14T05:09:31.030Z,92.67
2023-07-14T05:10:31.023Z,92.68
2023-07-14T05:11:31.021Z,92.72
2023-07-14T05:12:31.031Z,92.73
2023-07-14T05:13:31.010Z,92.48
2023-07-14T05:14:30.970Z,92.25
2023-07-14T05:15:30.956Z,92.09
2023-07-14T05:16:30.972Z,92.06
2023-07-14T05:17:30.943Z,91.93
2023-07-14T05:18:30.892Z,91.86
2023-07-14T05:19:30.407Z,91.91
2023-07-14T05:20:30.892Z,91.46
2023-07-14T05:21:28.995Z,91.26
2023-07-14T05:22:30.874Z,91.24
2023-07-14T05:23:30.827Z,90.98
2023-07-14T05:24:30.846Z,90.94
2023-07-14T05:25:30.871Z,90.51
2023-07-14T05:26:30.810Z,90.12
2023-07-14T05:27:30.771Z,89.85
2023-07-14T05:28:30.776Z,89.03
2023-07-14T05:29:30.767Z,88.66
2023-07-14T05:30:30.756Z,88.28
2023-07-14T05:31:30.751Z,87.64
2023-07-14T05:32:30.734Z,87.11
2023-07-14T05:33:30.687Z,85.96
2023-07-14T05:34:30.758Z,85.25
2023-07-14T05:35:30.663Z,84.75
2023-07-14T05:36:30.640Z,83.85
2023-07-14T05:37:30.692Z,83.42
2023-07-14T05:38:30.622Z,83.62
2023-07-14T05:39:30.606Z,83.85
2023-07-14T05:40:38.340Z,83.40
2023-07-14T05:41:31.572Z,83.72
2023-07-14T05:42:30.562Z,83.18
2023-07-14T05:43:30.561Z,83.25
2023-07-14T05:44:30.538Z,83.49
2023-07-14T05:45:30.523Z,83.54
2023-07-14T05:46:30.547Z,82.94
2023-07-14T05:47:30.527Z,82.62
2023-07-14T05:48:30.496Z,81.43
2023-07-14T05:49:30.471Z,81.62
2023-07-14T05:50:30.448Z,81.08
2023-07-14T05:51:30.442Z,81.42
2023-07-14T05:52:30.434Z,82.12
2023-07-14T05:53:30.430Z,81.65
2023-07-14T05:54:30.386Z,81.77
2023-07-14T05:55:30.377Z,81.75
2023-07-14T05:56:30.358Z,81.82
2023-07-14T05:57:30.357Z,81.73
2023-07-14T05:58:30.331Z,81.55
2023-07-14T05:59:30.320Z,81.51
2023-07-14T06:00:30.399Z,81.56
2023-07-14T06:01:30.320Z,81.38
2023-07-14T06:02:30.359Z,81.32
2023-07-14T06:03:30.482Z,81.50
2023-07-14T06:04:30.254Z,80.99
2023-07-14T06:05:30.234Z,81.08
2023-07-14T06:06:30.214Z,80.89
2023-07-14T06:07:30.224Z,80.25
2023-07-14T06:08:30.196Z,80.42
2023-07-14T06:09:30.192Z,80.73
2023-07-14T06:10:30.231Z,80.71
2023-07-14T06:11:30.160Z,80.78
2023-07-14T06:12:30.004Z,80.35
2023-07-14T06:13:30.127Z,81.07
2023-07-14T06:14:30.137Z,81.49
2023-07-14T06:15:30.134Z,81.49
2023-07-14T06:16:30.106Z,81.59
2023-07-14T06:17:30.112Z,81.39
2023-07-14T06:18:30.048Z,81.60
2023-07-14T06:19:30.032Z,81.76
2023-07-14T06:20:32.219Z,82.14
2023-07-14T06:21:30.031Z,82.38
2023-07-14T06:22:30.035Z,82.83
2023-07-14T06:23:29.991Z,82.02
2023-07-14T06:24:29.997Z,81.04
2023-07-14T06:25:29.972Z,79.82
2023-07-14T06:26:29.959Z,78.73
2023-07-14T06:27:29.930Z,76.14
2023-07-14T06:28:29.926Z,74.90
2023-07-14T06:29:29.907Z,71.88
2023-07-14T06:30:30.604Z,71.51
2023-07-14T06:31:30.144Z,69.64
2023-07-14T06:32:29.908Z,68.48
2023-07-14T06:33:29.860Z,67.26
2023-07-14T06:34:29.837Z,66.42
2023-07-14T06:35:29.853Z,65.68
2023-07-14T06:36:29.806Z,65.29
2023-07-14T06:37:29.794Z,64.18
2023-07-14T06:38:29.790Z,64.17
2023-07-14T06:39:29.781Z,62.42
2023-07-14T06:40:29.790Z,61.41
2023-07-14T06:41:29.723Z,61.25
2023-07-14T06:42:29.958Z,60.17
2023-07-14T06:43:29.703Z,58.10
2023-07-14T06:44:29.693Z,58.06
2023-07-14T06:45:29.707Z,57.35
2023-07-14T06:46:29.715Z,55.84
2023-07-14T06:47:29.743Z,54.43
2023-07-14T06:48:29.649Z,53.42
2023-07-14T06:49:29.688Z,53.24
2023-07-14T06:50:29.632Z,53.50
2023-07-14T06:51:29.591Z,52.86
2023-07-14T06:52:29.591Z,54.15
2023-07-14T06:53:29.599Z,53.81
2023-07-14T06:54:29.583Z,54.40
2023-07-14T06:55:29.554Z,54.39
2023-07-14T06:56:29.530Z,55.90
2023-07-14T06:57:29.520Z,56.32
2023-07-14T06:58:29.507Z,57.47
2023-07-14T06:59:29.492Z,56.97
2023-07-14T07:00:29.489Z,56.02
2023-07-14T07:01:29.467Z,55.63
2023-07-14T07:02:29.455Z,54.43
2023-07-14T07:03:29.442Z,52.54
2023-07-14T07:04:29.426Z,50.92
2023-07-14T07:05:29.465Z,49.97
2023-07-14T07:06:29.393Z,49.28
2023-07-14T07:07:29.369Z,50.01
2023-07-14T07:08:29.378Z,49.77
2023-07-14T07:09:29.364Z,49.96
2023-07-14T07:10:29.382Z,50.78
2023-07-14T07:11:29.326Z,51.42
2023-07-14T07:12:29.320Z,51.77
2023-07-14T07:13:29.302Z,50.99
2023-07-14T07:14:29.328Z,50.66
2023-07-14T07:15:29.271Z,51.09
2023-07-14T07:16:28.893Z,51.19
2023-07-14T07:17:29.296Z,49.54
2023-07-14T07:18:29.226Z,49.95
2023-07-14T07:19:29.222Z,49.55
2023-07-14T07:20:29.218Z,48.48
2023-07-14T07:21:29.183Z,47.69
2023-07-14T07:22:29.295Z,46.43
2023-07-14T07:23:29.239Z,47.04
2023-07-14T07:24:29.152Z,47.24
2023-07-14T07:25:29.154Z,46.25
2023-07-14T07:26:29.178Z,45.71
2023-07-14T07:27:29.164Z,44.77
2023-07-14T07:28:29.100Z,44.92
2023-07-14T07:29:29.091Z,45.14
2023-07-14T07:30:29.072Z,44.52
2023-07-14T07:31:29.129Z,44.28
2023-07-14T07:32:29.147Z,43.89
2023-07-14T07:33:29.044Z,43.39
2023-07-14T07:34:29.035Z,43.76
2023-07-14T07:35:29.042Z,44.15
2023-07-14T07:36:28.056Z,44.66
2023-07-14T07:37:29.005Z,43.74
2023-07-14T07:38:28.966Z,43.28
2023-07-14T07:39:28.957Z,42.56
2023-07-14T07:40:28.929Z,41.13
2023-07-14T07:41:29.090Z,42.38
2023-07-14T07:42:28.929Z,42.39
2023-07-14T07:43:28.951Z,40.83
2023-07-14T07:44:31.429Z,40.07
2023-07-14T07:45:28.858Z,41.11
2023-07-14T07:46:28.969Z,41.50
2023-07-14T07:47:28.863Z,42.62
2023-07-14T07:48:28.838Z,43.38
2023-07-14T07:49:28.848Z,44.58
2023-07-14T07:50:28.794Z,44.30
2023-07-14T07:51:28.930Z,43.55
2023-07-14T07:52:28.776Z,44.24
2023-07-14T07:53:28.773Z,43.00
2023-07-14T07:54:28.750Z,42.44
2023-07-14T07:55:28.338Z,41.00
2023-07-14T07:56:28.738Z,41.75
2023-07-14T07:57:28.728Z,42.01
2023-07-14T07:58:28.715Z,42.63
2023-07-14T07:59:28.692Z,42.44
2023-07-14T08:00:28.681Z,43.26
2023-07-14T08:01:28.713Z,42.22
2023-07-14T08:02:28.743Z,42.46
2023-07-14T08:03:28.908Z,42.86
2023-07-14T08:04:28.610Z,42.58
2023-07-14T08:05:28.617Z,42.78
2023-07-14T08:06:28.606Z,41.19
2023-07-14T08:07:28.583Z,42.20
2023-07-14T08:08:28.559Z,42.46
2023-07-14T08:09:28.567Z,43.44
2023-07-14T08:10:28.559Z,43.53
2023-07-14T08:11:28.529Z,43.58
2023-07-14T08:12:28.513Z,43.66
2023-07-14T08:13:28.496Z,44.27
2023-07-14T08:14:28.524Z,44.09
2023-07-14T08:15:28.485Z,44.57
2023-07-14T08:16:28.485Z,44.34
2023-07-14T08:17:28.487Z,44.20
2023-07-14T08:18:28.055Z,44.43
2023-07-14T08:19:28.441Z,45.78
2023-07-14T08:20:28.401Z,46.39
2023-07-14T08:21:28.393Z,44.43
2023-07-14T08:22:28.425Z,44.62
2023-07-14T08:23:29.611Z,44.56
2023-07-14T08:24:28.354Z,44.83
2023-07-14T08:25:28.394Z,45.53
2023-07-14T08:26:28.319Z,45.23
2023-07-14T08:27:28.303Z,44.64
2023-07-14T08:28:28.361Z,44.22
2023-07-14T08:29:28.351Z,43.99
2023-07-14T08:30:27.830Z,45.40
2023-07-14T08:31:28.281Z,44.77
2023-07-14T08:32:28.269Z,45.70
2023-07-14T08:33:28.250Z,45.83
2023-07-14T08:34:28.210Z,44.95
2023-07-14T08:35:28.214Z,44.72
2023-07-14T08:36:28.185Z,45.73
2023-07-14T08:37:28.184Z,45.21
2023-07-14T08:38:28.190Z,45.18
2023-07-14T08:39:28.161Z,45.64
2023-07-14T08:40:28.186Z,46.65
2023-07-14T08:41:28.132Z,47.05
2023-07-14T08:42:28.120Z,47.13
2023-07-14T08:43:28.127Z,47.49
2023-07-14T08:44:28.077Z,47.19
2023-07-14T08:45:28.100Z,47.35
2023-07-14T08:46:28.182Z,47.36
2023-07-14T08:47:28.066Z,48.10
2023-07-14T08:48:28.041Z,49.50
2023-07-14T08:49:28.021Z,50.41
2023-07-14T08:50:28.005Z,48.66
2023-07-14T08:51:27.984Z,47.70
2023-07-14T08:52:28.011Z,47.11
2023-07-14T08:53:27.988Z,46.96
2023-07-14T08:54:27.944Z,46.64
2023-07-14T08:55:27.963Z,47.30
2023-07-14T08:56:27.917Z,46.05
2023-07-14T08:57:27.931Z,45.75
2023-07-14T08:58:27.909Z,46.22
2023-07-14T08:59:27.884Z,46.22
2023-07-14T09:00:27.860Z,45.57
2023-07-14T09:01:27.938Z,45.69
2023-07-14T09:02:28.002Z,46.36
2023-07-14T09:03:27.887Z,45.86
2023-07-14T09:04:27.807Z,46.70
2023-07-14T09:05:27.800Z,47.56
2023-07-14T09:06:28.173Z,46.16
2023-07-14T09:07:27.776Z,45.48
2023-07-14T09:08:27.768Z,46.30
2023-07-14T09:09:27.733Z,45.33
2023-07-14T09:10:27.732Z,46.04
2023-07-14T09:11:27.729Z,45.97
2023-07-14T09:12:27.702Z,43.72
2023-07-14T09:13:27.684Z,43.07
2023-07-14T09:14:27.701Z,43.20
2023-07-14T09:15:27.651Z,43.22
2023-07-14T09:16:27.689Z,42.87
2023-07-14T09:17:27.653Z,41.57
2023-07-14T09:18:27.703Z,41.32
2023-07-14T09:19:27.604Z,39.22
2023-07-14T09:20:27.605Z,39.60
2023-07-14T09:21:27.598Z,38.12
2023-07-14T09:22:27.590Z,39.04
2023-07-14T09:23:27.541Z,37.55
2023-07-14T09:24:27.527Z,37.64
2023-07-14T09:25:27.537Z,38.81
2023-07-14T09:26:27.519Z,38.45
2023-07-14T09:27:27.481Z,37.24
2023-07-14T09:28:27.483Z,35.74
2023-07-14T09:29:27.466Z,36.45
2023-07-14T09:30:27.485Z,36.73
2023-07-14T09:31:27.490Z,36.89
2023-07-14T09:32:27.462Z,37.01
2023-07-14T09:33:27.420Z,36.36
2023-07-14T09:34:27.439Z,36.59
2023-07-14T09:35:27.405Z,37.56
2023-07-14T09:36:27.382Z,38.12
2023-07-14T09:37:27.364Z,39.78
2023-07-14T09:38:27.357Z,39.78
2023-07-14T09:39:27.355Z,41.41
2023-07-14T09:40:27.333Z,42.15
2023-07-14T09:41:27.312Z,42.02
2023-07-14T09:42:27.216Z,41.73
2023-07-14T09:43:27.313Z,42.19
2023-07-14T09:44:27.284Z,42.07
2023-07-14T09:45:27.258Z,41.67
2023-07-14T09:46:27.294Z,40.77
2023-07-14T09:47:30.018Z,41.79
2023-07-14T09:48:27.235Z,41.12
2023-07-14T09:49:26.943Z,41.65
2023-07-14T09:50:27.200Z,41.26
2023-07-14T09:51:27.175Z,41.79
2023-07-14T09:52:27.210Z,42.28
2023-07-14T09:53:27.190Z,43.12
2023-07-14T09:54:27.158Z,42.16
2023-07-14T09:55:27.160Z,42.32
2023-07-14T09:56:27.128Z,42.73
2023-07-14T09:57:38.811Z,42.17
2023-07-14T09:58:28.135Z,43.06
2023-07-14T09:59:27.084Z,42.98
2023-07-14T10:00:27.105Z,43.06
2023-07-14T10:01:27.831Z,43.39
2023-07-14T10:02:25.177Z,43.60
2023-07-14T10:03:42.223Z,43.21
2023-07-14T10:04:28.044Z,42.01
2023-07-14T10:05:27.006Z,41.26
2023-07-14T10:06:27.001Z,41.47
2023-07-14T10:07:27.506Z,41.08
2023-07-14T10:08:27.036Z,40.75
2023-07-14T10:09:26.981Z,40.30
2023-07-14T10:10:26.984Z,39.16
2023-07-14T10:11:26.954Z,39.12
2023-07-14T10:12:26.965Z,37.61
2023-07-14T10:13:26.922Z,38.42
2023-07-14T10:14:26.948Z,38.22
2023-07-14T10:15:26.918Z,38.48
2023-07-14T10:16:26.930Z,37.99
2023-07-14T10:17:27.017Z,38.76
2023-07-14T10:18:26.916Z,37.20
2023-07-14T10:19:26.838Z,37.17
2023-07-14T10:20:26.834Z,38.12
2023-07-14T10:21:26.854Z,38.99
2023-07-14T10:22:26.933Z,40.18
2023-07-14T10:23:26.792Z,39.68
2023-07-14T10:24:26.849Z,40.16
2023-07-14T10:25:27.253Z,40.99
2023-07-14T10:26:26.745Z,40.88
2023-07-14T10:27:26.801Z,40.33
2023-07-14T10:28:26.700Z,40.28
2023-07-14T10:29:26.729Z,40.18
2023-07-14T10:30:26.679Z,40.06
2023-07-14T10:31:26.708Z,38.70
2023-07-14T10:32:26.750Z,38.75
2023-07-14T10:33:26.645Z,38.76
2023-07-14T10:34:26.631Z,39.04
2023-07-14T10:35:26.195Z,38.78
2023-07-14T10:36:27.333Z,38.15
2023-07-14T10:37:27.054Z,38.28
2023-07-14T10:38:26.596Z,37.93
2023-07-14T10:39:26.544Z,37.80
2023-07-14T10:40:26.561Z,39.07
2023-07-14T10:41:26.553Z,40.35
2023-07-14T10:42:26.500Z,40.94
2023-07-14T10:43:27.417Z,40.76
2023-07-14T10:44:26.474Z,41.49
2023-07-14T10:45:26.480Z,42.23
2023-07-14T10:46:26.482Z,42.57
2023-07-14T10:47:26.478Z,43.19
2023-07-14T10:48:26.402Z,42.08
2023-07-14T10:49:26.457Z,42.53
2023-07-14T10:50:26.400Z,43.31
2023-07-14T10:51:26.421Z,43.82
2023-07-14T10:52:28.260Z,43.21
2023-07-14T10:53:26.365Z,43.10
2023-07-14T10:54:26.339Z,42.93
2023-07-14T10:55:26.342Z,42.68
2023-07-14T10:56:26.339Z,43.53
2023-07-14T10:57:26.292Z,42.06
2023-07-14T10:58:26.335Z,41.78
2023-07-14T10:59:26.273Z,40.99
2023-07-14T11:00:26.290Z,41.13
2023-07-14T11:01:26.268Z,41.39
2023-07-14T11:02:26.298Z,41.88
2023-07-14T11:03:26.383Z,42.31
2023-07-14T11:04:26.337Z,43.38
2023-07-14T11:05:26.245Z,42.31
2023-07-14T11:06:26.160Z,43.35
2023-07-14T11:07:26.166Z,42.49
2023-07-14T11:08:26.200Z,42.11
2023-07-14T11:09:26.182Z,42.51
2023-07-14T11:10:26.885Z,43.13
2023-07-14T11:11:26.119Z,42.86
2023-07-14T11:12:26.088Z,44.23
2023-07-14T11:13:26.081Z,42.92
2023-07-14T11:14:26.151Z,42.91
2023-07-14T11:15:26.065Z,43.35
2023-07-14T11:16:26.104Z,44.09
2023-07-14T11:17:26.152Z,42.59
2023-07-14T11:18:26.044Z,44.37
2023-07-14T11:19:41.207Z,44.32
2023-07-14T11:20:27.000Z,45.83
2023-07-14T11:21:26.013Z,45.55
2023-07-14T11:22:26.025Z,45.55
2023-07-14T11:23:25.950Z,44.46
2023-07-14T11:24:25.950Z,44.40
2023-07-14T11:25:25.924Z,44.58
2023-07-14T11:26:25.910Z,45.04
2023-07-14T11:27:25.948Z,45.17
2023-07-14T11:28:25.872Z,45.05
2023-07-14T11:29:25.855Z,45.33
2023-07-14T11:30:25.843Z,45.23
2023-07-14T11:31:25.870Z,44.61
2023-07-14T11:32:25.849Z,44.50
2023-07-14T11:33:25.821Z,44.35
2023-07-14T11:34:25.809Z,44.97
2023-07-14T11:35:25.797Z,44.78
2023-07-14T11:36:25.785Z,45.68
2023-07-14T11:37:25.780Z,45.89
2023-07-14T11:38:25.752Z,46.05
2023-07-14T11:39:25.715Z,45.54
2023-07-14T11:40:25.713Z,45.97
2023-07-14T11:41:25.705Z,46.75
2023-07-14T11:42:25.714Z,46.35
2023-07-14T11:43:25.668Z,45.86
2023-07-14T11:44:25.113Z,45.27
2023-07-14T11:45:25.650Z,45.70
2023-07-14T11:46:25.764Z,47.40
2023-07-14T11:47:25.638Z,47.47
2023-07-14T11:48:25.602Z,47.70
2023-07-14T11:49:25.611Z,45.65
2023-07-14T11:50:39.777Z,46.95
2023-07-14T11:51:26.572Z,46.78
2023-07-14T11:52:25.583Z,48.00
2023-07-14T11:53:25.526Z,47.21
2023-07-14T11:54:25.515Z,46.42
2023-07-14T11:55:25.508Z,45.73
2023-07-14T11:56:25.507Z,46.80
2023-07-14T11:57:25.509Z,47.55
2023-07-14T11:58:25.447Z,47.81
2023-07-14T11:59:25.450Z,47.51
2023-07-14T12:00:25.446Z,48.37
2023-07-14T12:01:25.438Z,49.19
2023-07-14T12:02:25.550Z,48.76
2023-07-14T12:03:34.065Z,49.25
2023-07-14T12:04:26.454Z,49.90
2023-07-14T12:05:25.396Z,50.40
2023-07-14T12:06:25.390Z,49.34
2023-07-14T12:07:25.343Z,47.57
2023-07-14T12:08:25.366Z,46.88
2023-07-14T12:09:25.323Z,46.48
2023-07-14T12:10:25.381Z,45.64
2023-07-14T12:11:39.717Z,45.48
2023-07-14T12:12:25.108Z,44.28
2023-07-14T12:13:25.245Z,43.91
2023-07-14T12:14:25.260Z,43.21
2023-07-14T12:15:25.241Z,42.95
2023-07-14T12:16:25.239Z,42.04
2023-07-14T12:17:25.253Z,41.56
2023-07-14T12:18:25.185Z,41.58
2023-07-14T12:19:25.156Z,41.59
2023-07-14T12:20:25.167Z,41.81
2023-07-14T12:21:25.151Z,42.76
2023-07-14T12:22:25.191Z,41.78
2023-07-14T12:23:25.119Z,41.19
2023-07-14T12:24:25.116Z,40.84
2023-07-14T12:25:25.119Z,40.13
2023-07-14T12:26:25.083Z,39.01
2023-07-14T12:27:25.056Z,39.94
2023-07-14T12:28:25.043Z,40.97
2023-07-14T12:29:25.065Z,40.95
2023-07-14T12:30:25.026Z,40.98
2023-07-14T12:31:25.108Z,40.97
2023-07-14T12:32:25.075Z,40.57
2023-07-14T12:33:24.983Z,41.42
2023-07-14T12:34:24.996Z,41.28
2023-07-14T12:35:24.960Z,41.79
2023-07-14T12:36:24.931Z,41.27
2023-07-14T12:37:24.947Z,40.94
2023-07-14T12:38:24.942Z,38.86
2023-07-14T12:39:24.900Z,38.40
2023-07-14T12:40:24.886Z,37.48
2023-07-14T12:41:24.897Z,36.59
2023-07-14T12:42:24.874Z,36.55
2023-07-14T12:43:24.865Z,36.08
2023-07-14T12:44:24.846Z,33.95
2023-07-14T12:45:24.844Z,34.18
2023-07-14T12:46:24.908Z,34.53
2023-07-14T12:47:24.828Z,34.62
2023-07-14T12:48:24.791Z,33.89
2023-07-14T12:49:24.751Z,33.91
2023-07-14T12:50:24.760Z,33.14
2023-07-14T12:51:24.726Z,32.52
2023-07-14T12:52:24.732Z,33.69